Time;durP1;ratioP1;P1;durP2;ratioP2;P2;SDS_P1;SDS_P2;PMS_P1;PMS_P2;Temp;Humidity;BMP_temperature;BMP_pressure;BME280_temperature;BME280_humidity;BME280_pressure;Samples;Min_cycle;Max_cycle;Signal;HPM_P1;HPM_P2
2022/08/15 00:02:48;;;;;;;13.40;12.13;;;24.10;1.00;;;;;;6280388;28;20236;-55
2022/08/15 00:05:52;;;;;;;13.77;11.87;;;24.00;1.00;;;;;;6283544;28;20618;-55
2022/08/15 00:08:57;;;;;;;13.07;12.10;;;24.00;1.00;;;;;;6283176;28;20229;-55
2022/08/15 00:12:02;;;;;;;12.87;11.70;;;23.90;1.00;;;;;;6273031;28;20234;-55
2022/08/15 00:15:11;;;;;;;13.50;12.07;;;23.90;1.00;;;;;;6275110;28;20240;-53
2022/08/15 00:18:14;;;;;;;13.80;12.60;;;23.80;1.00;;;;;;6276527;28;20233;-56
2022/08/15 00:21:22;;;;;;;12.77;11.67;;;23.80;1.00;;;;;;6275085;28;20757;-54
2022/08/15 00:24:27;;;;;;;11.60;10.57;;;23.80;1.00;;;;;;6258343;28;20246;-55
2022/08/15 00:27:33;;;;;;;14.27;12.40;;;23.80;1.00;;;;;;6258326;28;20376;-55
2022/08/15 00:30:38;;;;;;;12.73;11.63;;;23.70;1.00;;;;;;6257436;28;20325;-56
2022/08/15 00:34:01;;;;;;;13.53;12.37;;;23.70;1.00;;;;;;6273166;28;20595;-58
2022/08/15 00:37:05;;;;;;;13.80;12.50;;;23.70;1.00;;;;;;6284010;28;20566;-54
2022/08/15 00:40:10;;;;;;;13.10;12.00;;;23.60;1.00;;;;;;6268750;28;20248;-54
2022/08/15 00:43:21;;;;;;;13.77;12.40;;;23.60;1.00;;;;;;6260763;28;20284;-55
2022/08/15 00:46:32;;;;;;;14.33;13.23;;;23.50;1.00;;;;;;6282542;28;20326;-55
2022/08/15 00:49:36;;;;;;;14.30;12.93;;;23.50;1.00;;;;;;6267596;28;20351;-53
2022/08/15 00:53:00;;;;;;;12.87;11.83;;;23.50;1.00;;;;;;6257654;28;20241;-54
2022/08/15 00:56:06;;;;;;;14.10;12.90;;;23.40;1.00;;;;;;6249954;28;20233;-55
2022/08/15 00:59:35;;;;;;;13.37;12.30;;;23.30;1.00;;;;;;6265452;28;20249;-55
2022/08/15 01:02:46;;;;;;;12.80;11.90;;;23.30;1.00;;;;;;6288054;28;20237;-55
2022/08/15 01:05:53;;;;;;;14.17;12.77;;;23.30;1.00;;;;;;6287243;28;20792;-55
2022/08/15 01:08:56;;;;;;;13.63;12.67;;;23.20;1.00;;;;;;6263317;28;20290;-55
2022/08/15 01:12:05;;;;;;;14.43;13.37;;;23.10;1.00;;;;;;6262623;28;20229;-55
2022/08/15 01:15:13;;;;;;;14.60;13.30;;;23.10;1.00;;;;;;6271286;28;20229;-54
2022/08/15 01:18:19;;;;;;;14.37;12.97;;;23.10;1.00;;;;;;6287132;28;20244;-56
2022/08/15 01:21:39;;;;;;;14.70;13.33;;;23.00;1.00;;;;;;6283979;28;20274;-55
2022/08/15 01:24:59;;;;;;;15.27;13.87;;;23.00;1.00;;;;;;6261915;28;20785;-55
2022/08/15 01:28:27;;;;;;;15.30;13.90;;;22.90;1.00;;;;;;6262914;28;20234;-57
2022/08/15 01:31:34;;;;;;;14.60;13.20;;;22.90;1.00;;;;;;6261436;28;20241;-55
2022/08/15 01:34:38;;;;;;;14.93;13.73;;;22.80;1.00;;;;;;6282042;28;20805;-56
2022/08/15 01:37:51;;;;;;;14.77;13.57;;;22.80;1.00;;;;;;6275525;28;20249;-53
2022/08/15 01:41:09;;;;;;;13.97;12.90;;;22.80;1.00;;;;;;6275097;28;20637;-55
2022/08/15 01:44:21;;;;;;;16.33;13.83;;;22.70;1.00;;;;;;6286553;28;20245;-55
2022/08/15 01:47:42;;;;;;;15.00;13.83;;;22.70;1.00;;;;;;6285705;28;20380;-55
2022/08/15 01:50:50;;;;;;;15.50;14.07;;;22.70;1.00;;;;;;6287105;28;20237;-54
2022/08/15 01:54:00;;;;;;;16.53;14.93;;;22.60;1.00;;;;;;6281338;28;20230;-55
2022/08/15 01:57:06;;;;;;;15.47;14.20;;;22.70;1.00;;;;;;6261576;28;20325;-55
2022/08/15 02:00:12;;;;;;;16.03;14.53;;;22.50;1.00;;;;;;6261741;28;20317;-55
2022/08/15 02:03:21;;;;;;;14.93;13.60;;;22.60;1.00;;;;;;6271236;28;20468;-54
2022/08/15 02:06:29;;;;;;;15.00;13.90;;;22.50;1.00;;;;;;6286468;28;20248;-55
2022/08/15 02:09:37;;;;;;;14.73;13.60;;;22.40;1.00;;;;;;6286211;28;20711;-56
2022/08/15 02:12:55;;;;;;;15.30;14.10;;;22.40;1.00;;;;;;6280240;28;20892;-54
2022/08/15 02:16:06;;;;;;;15.83;14.23;;;22.30;1.00;;;;;;6281704;28;20241;-54
2022/08/15 02:19:14;;;;;;;16.10;14.57;;;22.30;1.00;;;;;;6285423;28;20616;-55
2022/08/15 02:22:24;;;;;;;15.83;14.63;;;22.30;1.00;;;;;;6273523;28;20229;-55
2022/08/15 02:25:30;;;;;;;16.43;14.90;;;22.30;1.00;;;;;;6285047;28;20259;-53
2022/08/15 02:28:42;;;;;;;15.33;13.90;;;22.20;1.00;;;;;;6286356;28;20249;-55
2022/08/15 02:31:46;;;;;;;15.73;14.20;;;22.20;1.00;;;;;;6261673;28;20511;-56
2022/08/15 02:34:49;;;;;;;16.80;15.17;;;22.20;1.00;;;;;;6274535;28;20706;-55
2022/08/15 02:37:52;;;;;;;15.03;13.93;;;22.10;1.00;;;;;;6282559;28;20340;-55
2022/08/15 02:41:00;;;;;;;15.37;13.97;;;22.10;1.00;;;;;;6260738;28;20284;-55
2022/08/15 02:44:06;;;;;;;15.53;14.17;;;22.10;1.00;;;;;;6267293;28;20694;-55
2022/08/15 02:47:15;;;;;;;16.40;14.80;;;22.10;1.00;;;;;;6277100;28;20295;-55
2022/08/15 02:50:25;;;;;;;16.53;15.07;;;22.00;1.00;;;;;;6260915;28;20234;-55
2022/08/15 02:53:28;;;;;;;16.13;14.77;;;22.00;1.00;;;;;;6261014;28;20238;-55
2022/08/15 02:56:32;;;;;;;17.27;15.50;;;22.00;1.00;;;;;;6260212;28;20319;-55
2022/08/15 02:59:36;;;;;;;16.80;15.50;;;21.90;1.00;;;;;;6259471;28;20499;-53
2022/08/15 03:02:53;;;;;;;18.10;16.30;;;22.00;1.00;;;;;;6264413;28;20233;-56
2022/08/15 03:05:57;;;;;;;17.20;15.73;;;21.90;1.00;;;;;;6283538;28;20260;-55
2022/08/15 03:09:03;;;;;;;18.60;16.90;;;21.90;1.00;;;;;;6285013;28;20484;-55
2022/08/15 03:12:08;;;;;;;19.67;16.23;;;21.80;1.00;;;;;;6283156;28;20719;-55
2022/08/15 03:15:41;;;;;;;16.80;15.37;;;21.80;1.00;;;;;;6279660;28;20230;-54
2022/08/15 03:18:44;;;;;;;17.03;15.40;;;21.80;1.00;;;;;;6274050;28;20724;-55
2022/08/15 03:21:54;;;;;;;20.10;18.07;;;21.70;1.00;;;;;;6273845;28;20241;-54
2022/08/15 03:24:59;;;;;;;19.33;17.37;;;21.70;1.00;;;;;;6258919;28;20232;-55
2022/08/15 03:28:02;;;;;;;19.00;17.10;;;21.70;1.00;;;;;;6259761;28;20234;-55
2022/08/15 03:31:26;;;;;;;18.10;16.27;;;21.80;1.00;;;;;;6256529;28;20240;-55
2022/08/15 03:34:30;;;;;;;17.27;15.87;;;21.60;1.00;;;;;;6277829;28;20367;-55
2022/08/15 03:37:33;;;;;;;17.70;16.30;;;21.60;1.00;;;;;;6275177;28;20371;-54
2022/08/15 03:40:47;;;;;;;17.23;15.57;;;21.60;1.00;;;;;;6276595;28;20236;-55
2022/08/15 03:43:50;;;;;;;17.73;16.13;;;21.60;1.00;;;;;;6282555;28;20229;-54
2022/08/15 03:46:55;;;;;;;17.63;16.23;;;21.60;1.00;;;;;;6284610;28;20229;-54
2022/08/15 03:49:59;;;;;;;19.53;17.63;;;21.60;1.00;;;;;;6279221;28;20667;-54
2022/08/15 03:53:23;;;;;;;19.60;17.80;;;21.60;1.00;;;;;;6256653;28;20236;-54
2022/08/15 03:56:32;;;;;;;18.87;17.23;;;21.60;1.00;;;;;;6285449;28;20241;-55
2022/08/15 03:59:35;;;;;;;18.83;17.17;;;21.60;1.00;;;;;;6283775;28;20237;-55
2022/08/15 04:02:43;;;;;;;18.47;16.97;;;21.50;1.00;;;;;;6281081;28;20275;-56
2022/08/15 04:05:50;;;;;;;18.83;17.20;;;21.50;1.00;;;;;;6284078;28;20710;-60
2022/08/15 04:08:54;;;;;;;18.83;17.23;;;21.50;1.00;;;;;;6280096;28;20609;-56
2022/08/15 04:12:29;;;;;;;19.40;17.70;;;21.50;1.00;;;;;;6284468;28;20226;-55
2022/08/15 04:15:32;;;;;;;19.40;17.37;;;21.40;1.00;;;;;;6279505;28;20260;-56
2022/08/15 04:18:38;;;;;;;19.33;17.33;;;21.40;1.00;;;;;;6279529;28;20305;-54
2022/08/15 04:21:46;;;;;;;19.07;17.30;;;21.40;1.00;;;;;;6278111;28;20295;-53
2022/08/15 04:24:52;;;;;;;19.93;18.23;;;21.40;1.00;;;;;;6284052;28;20237;-57
2022/08/15 04:27:59;;;;;;;19.13;17.37;;;21.50;1.00;;;;;;6271949;28;20290;-55
2022/08/15 04:31:11;;;;;;;18.63;17.03;;;21.40;1.00;;;;;;6288418;28;20238;-55
2022/08/15 04:34:16;;;;;;;19.23;17.20;;;21.50;1.00;;;;;;6282167;28;20244;-53
2022/08/15 04:37:40;;;;;;;18.70;16.90;;;21.40;1.00;;;;;;6291003;28;20236;-54
2022/08/15 04:40:44;;;;;;;18.53;17.00;;;21.50;1.00;;;;;;6290380;28;20725;-55
2022/08/15 04:44:08;;;;;;;18.27;16.40;;;21.50;1.00;;;;;;6291830;28;20229;-55
2022/08/15 04:47:20;;;;;;;19.00;17.13;;;21.50;1.00;;;;;;6291303;28;20256;-55
2022/08/15 04:50:26;;;;;;;19.60;17.67;;;21.60;1.00;;;;;;6286962;28;20233;-55
2022/08/15 04:53:33;;;;;;;20.03;17.90;;;21.60;1.00;;;;;;6291045;28;20464;-55
2022/08/15 04:56:37;;;;;;;19.50;17.70;;;21.60;1.00;;;;;;6292132;28;20225;-54
2022/08/15 04:59:52;;;;;;;20.10;17.97;;;21.70;1.00;;;;;;6284600;28;20702;-55
2022/08/15 05:03:10;;;;;;;20.10;18.20;;;21.70;1.00;;;;;;6292343;28;20233;-54
2022/08/15 05:06:18;;;;;;;18.83;17.20;;;21.70;1.00;;;;;;6286079;28;20738;-55
2022/08/15 05:09:33;;;;;;;18.20;16.50;;;21.70;1.00;;;;;;6290718;28;20252;-54
2022/08/15 05:12:56;;;;;;;18.73;17.00;;;21.80;1.00;;;;;;6286164;28;20233;-54
2022/08/15 05:15:59;;;;;;;17.97;16.33;;;21.90;1.00;;;;;;6291517;28;20225;-55
2022/08/15 05:19:02;;;;;;;18.43;16.73;;;22.00;1.00;;;;;;6282928;28;20318;-54
2022/08/15 05:22:07;;;;;;;17.43;15.83;;;22.10;1.00;;;;;;6292549;28;20385;-56
2022/08/15 05:25:10;;;;;;;17.97;16.40;;;22.10;1.00;;;;;;6291960;28;20712;-56
2022/08/15 05:28:14;;;;;;;18.77;16.97;;;22.10;1.00;;;;;;6288361;28;20302;-54
2022/08/15 05:31:33;;;;;;;18.00;16.20;;;22.10;1.00;;;;;;6291095;28;20401;-56
2022/08/15 05:34:38;;;;;;;21.07;16.87;;;22.20;1.00;;;;;;6284313;28;20248;-55
2022/08/15 05:37:47;;;;;;;18.63;16.63;;;22.20;1.00;;;;;;6284300;28;20487;-55
2022/08/15 05:41:14;;;;;;;18.30;16.70;;;22.20;1.00;;;;;;6290497;28;20237;-55
2022/08/15 05:44:24;;;;;;;17.57;16.07;;;22.40;1.00;;;;;;6283988;28;20229;-55
2022/08/15 05:47:55;;;;;;;18.37;16.23;;;22.60;1.00;;;;;;6279703;28;20233;-54
2022/08/15 05:51:09;;;;;;;17.30;15.90;;;22.70;1.00;;;;;;6281928;28;20252;-55
2022/08/15 05:54:26;;;;;;;19.23;17.07;;;22.80;1.00;;;;;;6280264;28;20754;-54
2022/08/15 05:57:36;;;;;;;18.50;16.90;;;22.70;1.00;;;;;;6286296;28;20786;-55
2022/08/15 06:00:47;;;;;;;18.23;16.67;;;22.70;1.00;;;;;;6285494;28;20237;-55
2022/08/15 06:03:55;;;;;;;19.77;17.97;;;22.70;1.00;;;;;;6285927;28;20602;-55
2022/08/15 06:07:02;;;;;;;17.23;15.83;;;22.80;1.00;;;;;;6250472;28;20659;-47
2022/08/15 06:10:13;;;;;;;17.73;15.67;;;22.80;1.00;;;;;;6287111;28;20321;-54
2022/08/15 06:13:41;;;;;;;18.70;16.83;;;22.80;1.00;;;;;;6282219;28;20237;-56
2022/08/15 06:16:51;;;;;;;18.07;16.40;;;23.10;1.00;;;;;;6278193;28;20294;-54
2022/08/15 06:20:03;;;;;;;17.77;15.97;;;23.40;1.00;;;;;;6279873;28;20269;-55
2022/08/15 06:23:42;;;;;;;17.43;15.83;;;23.90;1.00;;;;;;6285502;28;20241;-54
2022/08/15 06:27:04;;;;;;;19.00;17.30;;;24.30;1.00;;;;;;6285677;28;20229;-56
2022/08/15 06:30:16;;;;;;;17.87;16.07;;;24.50;1.00;;;;;;6286123;28;20333;-55
2022/08/15 06:33:30;;;;;;;17.30;15.80;;;24.70;1.00;;;;;;6284456;28;20241;-56
2022/08/15 06:37:00;;;;;;;18.57;16.77;;;24.80;1.00;;;;;;6279954;28;20245;-55
2022/08/15 06:40:11;;;;;;;17.47;15.80;;;24.80;1.00;;;;;;6281735;28;20291;-56
2022/08/15 06:43:31;;;;;;;19.37;17.57;;;24.80;1.00;;;;;;6284693;28;20241;-55
2022/08/15 06:46:37;;;;;;;18.20;16.50;;;24.90;1.00;;;;;;6283127;28;20634;-54
2022/08/15 06:49:54;;;;;;;17.50;15.97;;;25.20;1.00;;;;;;6279570;28;20357;-56
2022/08/15 06:53:04;;;;;;;17.57;15.73;;;25.50;1.00;;;;;;6277700;28;20592;-55
2022/08/15 06:56:20;;;;;;;17.40;15.90;;;25.70;1.00;;;;;;6284671;28;20237;-55
2022/08/15 06:59:39;;;;;;;17.80;16.30;;;25.70;1.00;;;;;;6284048;28;20252;-55
2022/08/15 07:03:09;;;;;;;14.43;13.13;;;25.70;1.00;;;;;;6278570;28;20290;-53
2022/08/15 07:06:18;;;;;;;15.50;14.30;;;25.80;1.00;;;;;;6281372;28;20233;-55
2022/08/15 07:09:34;;;;;;;14.23;13.20;;;25.90;1.00;;;;;;6283941;28;20237;-55
2022/08/15 07:12:43;;;;;;;14.67;13.67;;;26.00;1.00;;;;;;6284430;28;20971;-55
2022/08/15 07:15:59;;;;;;;15.37;13.97;;;26.10;1.00;;;;;;6285569;28;20432;-55
2022/08/15 07:19:03;;;;;;;14.30;13.07;;;26.10;1.00;;;;;;6284734;28;20375;-55
2022/08/15 07:22:07;;;;;;;14.97;13.80;;;26.30;1.00;;;;;;6284405;28;20225;-57
2022/08/15 07:25:13;;;;;;;14.90;13.60;;;26.30;1.00;;;;;;6284533;28;20308;-54
2022/08/15 07:28:20;;;;;;;15.77;14.47;;;26.40;1.00;;;;;;6282515;28;20678;-54
2022/08/15 07:31:29;;;;;;;15.33;13.97;;;26.30;1.00;;;;;;6284435;28;20777;-54
2022/08/15 07:34:59;;;;;;;14.37;12.90;;;26.40;1.00;;;;;;6282040;28;20244;-54
2022/08/15 07:38:08;;;;;;;14.70;13.30;;;26.50;1.00;;;;;;6267774;28;20226;-53
2022/08/15 07:41:30;;;;;;;14.83;13.70;;;26.60;1.00;;;;;;6281901;28;20774;-53
2022/08/15 07:44:36;;;;;;;17.17;14.13;;;26.60;1.00;;;;;;6277668;28;20499;-55
2022/08/15 07:47:54;;;;;;;15.67;14.37;;;26.60;1.00;;;;;;6283938;28;20248;-54
2022/08/15 07:51:09;;;;;;;14.27;12.97;;;26.70;1.00;;;;;;6283242;28;20334;-54
2022/08/15 07:54:26;;;;;;;14.50;13.10;;;26.70;1.00;;;;;;6283782;28;20252;-55
2022/08/15 07:58:02;;;;;;;15.73;14.40;;;26.70;1.00;;;;;;6257774;28;20237;-53
2022/08/15 08:01:11;;;;;;;14.20;13.10;;;26.50;1.00;;;;;;6279042;28;20757;-55
2022/08/15 08:04:37;;;;;;;14.60;13.50;;;26.40;1.00;;;;;;6283265;28;20232;-56
2022/08/15 08:07:44;;;;;;;14.27;13.27;;;26.50;1.00;;;;;;6283626;28;20252;-54
2022/08/15 08:11:02;;;;;;;13.10;11.97;;;26.50;1.00;;;;;;6277980;28;20245;-54
2022/08/15 08:14:14;;;;;;;13.70;12.70;;;26.50;1.00;;;;;;6282422;28;20229;-54
2022/08/15 08:17:45;;;;;;;13.77;12.47;;;26.70;1.00;;;;;;6282152;28;20755;-55
2022/08/15 08:20:53;;;;;;;13.27;12.30;;;26.80;1.00;;;;;;6282872;28;20248;-55
2022/08/15 08:24:02;;;;;;;13.07;12.10;;;26.90;1.00;;;;;;6283719;28;20385;-55
2022/08/15 08:27:26;;;;;;;12.87;11.77;;;26.90;1.00;;;;;;6282554;28;20245;-54
2022/08/15 08:30:40;;;;;;;12.03;11.23;;;27.00;1.00;;;;;;6282192;28;20237;-54
2022/08/15 08:33:58;;;;;;;12.73;11.70;;;26.90;1.00;;;;;;6275407;28;20497;-54
2022/08/15 08:37:13;;;;;;;13.07;11.97;;;27.00;1.00;;;;;;6272602;28;20609;-55
2022/08/15 08:43:55;;;;;;;12.80;11.90;;;27.00;1.00;;;;;;6274566;28;20233;-56
2022/08/15 08:47:11;;;;;;;12.77;11.87;;;27.10;1.00;;;;;;6281408;28;20236;-54
2022/08/15 08:50:28;;;;;;;13.23;12.23;;;27.10;1.00;;;;;;6283280;28;20237;-54
2022/08/15 08:53:46;;;;;;;13.60;12.30;;;27.20;1.00;;;;;;6282939;28;20372;-54
2022/08/15 08:57:04;;;;;;;13.43;12.30;;;27.20;1.00;;;;;;6271484;28;20234;-55
2022/08/15 09:00:14;;;;;;;12.40;11.67;;;27.30;1.00;;;;;;6278272;28;20308;-55
2022/08/15 09:03:21;;;;;;;12.33;11.47;;;27.30;1.00;;;;;;6283362;28;20302;-54
2022/08/15 09:06:31;;;;;;;12.63;11.70;;;27.30;1.00;;;;;;6282352;28;20234;-56
2022/08/15 09:09:40;;;;;;;12.30;11.33;;;27.40;1.00;;;;;;6282688;28;20241;-56
2022/08/15 09:16:15;;;;;;;12.83;11.93;;;27.60;1.00;;;;;;6271776;28;20593;-55
2022/08/15 09:19:27;;;;;;;13.47;12.47;;;27.70;1.00;;;;;;6280073;28;20233;-55
2022/08/15 09:22:31;;;;;;;14.53;13.37;;;27.80;1.00;;;;;;6284211;28;20279;-54
2022/08/15 09:25:43;;;;;;;14.47;12.93;;;27.80;1.00;;;;;;6286224;28;20287;-55
2022/08/15 09:29:05;;;;;;;15.33;14.13;;;27.80;1.00;;;;;;6280820;28;20619;-56
2022/08/15 09:32:40;;;;;;;14.67;13.50;;;27.90;1.00;;;;;;6287390;28;20244;-55
2022/08/15 09:35:59;;;;;;;12.97;11.97;;;28.10;1.00;;;;;;6279566;28;20238;-57
2022/08/15 09:39:24;;;;;;;13.57;12.57;;;28.30;1.00;;;;;;6286408;28;20221;-54
2022/08/15 09:43:07;;;;;;;12.80;11.90;;;28.60;1.00;;;;;;6285436;28;20722;-54
2022/08/15 09:46:39;;;;;;;13.70;12.43;;;28.90;1.00;;;;;;6282721;28;20726;-56
2022/08/15 09:50:04;;;;;;;13.00;12.10;;;28.90;1.00;;;;;;6285899;28;20707;-55
2022/08/15 09:53:41;;;;;;;12.80;11.77;;;28.90;1.00;;;;;;6285756;28;20241;-56
2022/08/15 09:57:23;;;;;;;12.13;11.33;;;29.10;1.00;;;;;;6281345;28;20225;-55
2022/08/15 10:00:41;;;;;;;10.90;10.13;;;29.20;1.00;;;;;;6285293;28;20702;-54
2022/08/15 10:03:54;;;;;;;12.32;11.25;;;29.30;1.00;;;;;;6284903;28;20229;-57
2022/08/15 10:07:41;;;;;;;12.32;11.18;;;29.50;1.00;;;;;;6273984;28;20225;-54
2022/08/15 10:10:53;;;;;;;11.05;10.18;;;29.80;1.00;;;;;;6276189;28;20417;-55
2022/08/15 10:14:05;;;;;;;10.35;9.65;;;30.10;1.00;;;;;;6286007;28;20304;-53
2022/08/15 10:17:37;;;;;;;11.55;10.70;;;30.20;1.00;;;;;;6285861;28;20238;-56
2022/08/15 10:21:02;;;;;;;11.70;10.82;;;29.90;1.00;;;;;;6277522;28;20678;-58
2022/08/15 10:24:21;;;;;;;10.90;9.95;;;29.70;1.00;;;;;;6285988;28;20272;-56
2022/08/15 10:27:55;;;;;;;11.23;10.43;;;29.70;1.00;;;;;;6283181;28;20261;-56
2022/08/15 10:31:26;;;;;;;12.18;11.18;;;29.50;1.00;;;;;;6279787;28;20312;-54
2022/08/15 10:34:59;;;;;;;11.20;10.50;;;29.30;1.00;;;;;;6283707;28;20229;-54
2022/08/15 10:38:07;;;;;;;12.48;11.57;;;29.10;1.00;;;;;;6282312;28;20233;-56
2022/08/15 10:41:40;;;;;;;10.98;10.18;;;29.30;1.00;;;;;;6282929;28;20287;-56
2022/08/15 10:44:54;;;;;;;11.68;10.88;;;29.60;1.00;;;;;;6285074;28;20589;-54
2022/08/15 10:48:13;;;;;;;10.75;10.10;;;29.70;1.00;;;;;;6285074;28;20257;-54
2022/08/15 10:52:02;;;;;;;11.02;10.00;;;29.50;1.00;;;;;;6284496;28;20244;-56
2022/08/15 10:55:23;;;;;;;10.53;9.83;;;29.80;1.00;;;;;;6277190;28;20797;-55
2022/08/15 10:58:47;;;;;;;11.02;10.23;;;30.00;1.00;;;;;;6277159;28;20249;-56
2022/08/15 11:01:51;;;;;;;12.20;11.30;;;30.20;1.00;;;;;;6284833;28;20647;-55
2022/08/15 11:05:01;;;;;;;10.75;10.10;;;30.30;1.00;;;;;;6283383;28;20233;-55
2022/08/15 11:08:15;;;;;;;12.10;11.20;;;30.40;1.00;;;;;;6285698;28;20450;-56
2022/08/15 11:11:23;;;;;;;13.57;12.25;;;30.40;1.00;;;;;;6282489;28;20589;-55
2022/08/15 11:14:30;;;;;;;11.98;11.27;;;30.20;1.00;;;;;;6283934;28;20708;-57
2022/08/15 11:17:35;;;;;;;13.52;11.65;;;30.20;1.00;;;;;;6285156;28;20253;-56
2022/08/15 11:20:52;;;;;;;12.60;11.70;;;30.10;1.00;;;;;;6277546;28;20252;-56
2022/08/15 11:24:00;;;;;;;11.65;10.90;;;30.10;1.00;;;;;;6284707;28;20244;-54
2022/08/15 11:27:11;;;;;;;11.13;10.32;;;30.40;1.00;;;;;;6277040;28;20332;-54
2022/08/15 11:30:27;;;;;;;11.63;10.73;;;30.50;1.00;;;;;;6270059;28;20272;-51
2022/08/15 11:33:42;;;;;;;11.45;10.55;;;30.50;1.00;;;;;;6283989;28;20247;-56
2022/08/15 11:36:45;;;;;;;11.57;10.77;;;30.60;1.00;;;;;;6278754;28;20267;-55
2022/08/15 11:40:00;;;;;;;11.07;10.15;;;30.60;1.00;;;;;;6281934;28;20241;-61
2022/08/15 11:43:16;;;;;;;10.73;10.02;;;30.60;1.00;;;;;;6280147;28;20229;-55
2022/08/15 11:46:23;;;;;;;11.13;10.40;;;30.70;1.00;;;;;;6280111;28;20314;-55
2022/08/15 11:49:35;;;;;;;11.18;10.35;;;30.50;1.00;;;;;;6279288;28;20245;-56
2022/08/15 11:52:50;;;;;;;11.73;10.73;;;30.60;1.00;;;;;;6283924;28;20398;-54
2022/08/15 11:55:54;;;;;;;11.18;10.38;;;30.40;1.00;;;;;;6283233;28;20233;-59
2022/08/15 11:58:58;;;;;;;11.25;10.32;;;30.30;1.00;;;;;;6278021;28;20233;-54
2022/08/15 12:02:10;;;;;;;11.50;10.55;;;30.10;1.00;;;;;;6283189;28;20931;-55
2022/08/15 12:05:36;;;;;;;10.60;9.60;;;30.40;1.00;;;;;;6282442;28;20237;-54
2022/08/15 12:09:09;;;;;;;10.25;9.65;;;30.80;1.00;;;;;;6277657;28;20609;-56
2022/08/15 12:12:30;;;;;;;10.13;9.43;;;30.90;1.00;;;;;;6280557;28;20380;-55
2022/08/15 12:15:41;;;;;;;9.82;8.95;;;30.90;1.00;;;;;;6279992;28;20230;-54
2022/08/15 12:18:49;;;;;;;10.60;10.00;;;31.10;1.00;;;;;;6272478;28;20233;-55
2022/08/15 12:21:58;;;;;;;11.55;10.45;;;31.30;1.00;;;;;;6282837;28;20236;-54
2022/08/15 12:25:21;;;;;;;11.25;10.45;;;31.50;1.00;;;;;;6274024;28;20252;-55
2022/08/15 12:28:46;;;;;;;11.05;10.18;;;31.50;1.00;;;;;;6282392;28;20230;-56
2022/08/15 12:31:59;;;;;;;12.30;11.32;;;31.30;1.00;;;;;;6283377;28;20241;-55
2022/08/15 12:35:03;;;;;;;10.60;9.63;;;30.90;1.00;;;;;;6281143;28;20241;-56
2022/08/15 12:38:05;;;;;;;10.35;9.52;;;30.70;1.00;;;;;;6281897;28;20278;-54
2022/08/15 12:41:11;;;;;;;10.82;10.02;;;30.60;1.00;;;;;;6278008;28;20567;-56
2022/08/15 12:44:38;;;;;;;11.50;10.70;;;30.40;1.00;;;;;;6281935;28;20325;-56
2022/08/15 12:47:50;;;;;;;11.50;10.75;;;30.30;1.00;;;;;;6282423;28;20310;-55
2022/08/15 12:51:11;;;;;;;11.77;10.50;;;30.20;1.00;;;;;;6283478;28;20234;-55
2022/08/15 12:54:15;;;;;;;11.45;10.70;;;30.10;1.00;;;;;;6283518;28;20594;-54
2022/08/15 12:57:29;;;;;;;11.23;10.43;;;30.10;1.00;;;;;;6279782;28;20324;-55
2022/08/15 13:00:57;;;;;;;12.13;11.18;;;30.10;1.00;;;;;;6282035;28;20233;-55
2022/08/15 13:04:10;;;;;;;11.20;10.45;;;30.20;1.00;;;;;;6283238;28;20365;-56
2022/08/15 13:07:33;;;;;;;11.57;10.75;;;30.30;1.00;;;;;;6280011;28;20640;-56
2022/08/15 13:10:56;;;;;;;11.25;10.48;;;30.30;1.00;;;;;;6281409;28;20408;-55
2022/08/15 13:14:12;;;;;;;12.27;11.38;;;30.10;1.00;;;;;;6285849;28;20225;-54
2022/08/15 13:17:17;;;;;;;10.80;10.07;;;30.00;1.00;;;;;;6287124;28;20655;-56
2022/08/15 13:24:05;;;;;;;10.77;9.95;;;29.90;1.00;;;;;;6279067;28;20791;-55
2022/08/15 13:27:19;;;;;;;11.30;10.55;;;29.90;1.00;;;;;;6284872;28;20230;-55
2022/08/15 13:30:22;;;;;;;12.23;11.07;;;29.80;1.00;;;;;;6286834;28;20598;-55
2022/08/15 13:33:43;;;;;;;11.23;10.50;;;29.80;1.00;;;;;;6283798;28;20448;-56
2022/08/15 13:36:51;;;;;;;12.05;10.85;;;29.70;1.00;;;;;;6287440;28;20431;-49
2022/08/15 13:39:58;;;;;;;11.65;10.80;;;29.70;1.00;;;;;;6283000;28;20925;-54
2022/08/15 13:43:03;;;;;;;11.60;10.80;;;29.70;1.00;;;;;;6285811;28;20236;-55
2022/08/15 13:46:15;;;;;;;9.90;9.10;;;29.80;1.00;;;;;;6286934;28;20230;-55
2022/08/15 13:49:38;;;;;;;10.55;9.48;;;29.80;1.00;;;;;;6285661;28;20304;-55
2022/08/15 13:52:42;;;;;;;10.25;9.40;;;30.00;1.00;;;;;;6278320;28;20244;-56
2022/08/15 13:55:53;;;;;;;9.13;8.52;;;30.30;1.00;;;;;;6276513;28;20236;-56
2022/08/15 13:58:57;;;;;;;9.27;8.70;;;30.40;1.00;;;;;;6285547;28;20237;-56
2022/08/15 14:02:03;;;;;;;9.00;8.40;;;30.40;1.00;;;;;;6285488;28;20388;-55
2022/08/15 14:05:28;;;;;;;9.55;9.00;;;30.50;1.00;;;;;;6284750;28;20229;-55
2022/08/15 14:08:35;;;;;;;9.68;9.02;;;30.60;1.00;;;;;;6285766;28;20502;-56
2022/08/15 14:11:58;;;;;;;8.75;8.35;;;30.70;1.00;;;;;;6284674;28;20752;-55
2022/08/15 14:15:01;;;;;;;9.35;8.75;;;30.90;1.00;;;;;;6285983;28;20240;-54
2022/08/15 14:18:06;;;;;;;11.40;9.73;;;31.10;1.00;;;;;;6282845;28;20272;-55
2022/08/15 14:21:32;;;;;;;10.35;9.55;;;31.10;1.00;;;;;;6286332;28;20234;-54
2022/08/15 14:24:35;;;;;;;9.52;8.93;;;31.00;1.00;;;;;;6286471;28;20496;-54
2022/08/15 14:27:58;;;;;;;13.18;9.55;;;30.90;1.00;;;;;;6271626;28;20238;-53
2022/08/15 14:31:03;;;;;;;9.82;9.02;;;31.10;1.00;;;;;;6285523;28;20403;-58
2022/08/15 14:34:24;;;;;;;9.43;8.80;;;31.20;1.00;;;;;;6283170;28;20485;-55
2022/08/15 14:37:51;;;;;;;10.05;9.25;;;31.10;1.00;;;;;;6286552;28;20236;-55
2022/08/15 14:40:55;;;;;;;10.45;9.60;;;30.90;1.00;;;;;;6285930;28;20237;-56
2022/08/15 14:43:58;;;;;;;9.48;8.93;;;30.80;1.00;;;;;;6285493;28;20363;-55
2022/08/15 14:47:02;;;;;;;9.45;8.88;;;30.80;1.00;;;;;;6279396;28;20298;-54
2022/08/15 14:50:07;;;;;;;9.90;9.10;;;30.90;1.00;;;;;;6284616;28;20318;-56
2022/08/15 14:53:31;;;;;;;9.73;8.93;;;30.90;1.00;;;;;;6285704;28;20245;-55
2022/08/15 14:56:36;;;;;;;9.05;8.40;;;30.90;1.00;;;;;;6285375;28;20267;-54
2022/08/15 14:59:39;;;;;;;10.05;9.23;;;30.80;1.00;;;;;;6284628;28;20244;-54
2022/08/15 15:03:02;;;;;;;8.88;8.45;;;30.70;1.00;;;;;;6285486;28;20234;-56
2022/08/15 15:06:06;;;;;;;9.60;9.00;;;30.70;1.00;;;;;;6284830;28;20305;-55
2022/08/15 15:09:30;;;;;;;9.77;8.98;;;30.60;1.00;;;;;;6281730;28;20273;-53
2022/08/15 15:12:33;;;;;;;11.32;10.43;;;30.60;1.00;;;;;;6286034;28;20637;-56
2022/08/15 15:15:48;;;;;;;11.77;10.65;;;30.50;1.00;;;;;;6282469;28;20237;-54
2022/08/15 15:19:14;;;;;;;18.17;11.13;;;30.40;1.00;;;;;;6275815;28;20240;-55
2022/08/15 15:22:20;;;;;;;11.43;10.43;;;30.30;1.00;;;;;;6285117;28;20229;-54
2022/08/15 15:25:25;;;;;;;11.57;10.55;;;30.30;1.00;;;;;;6283830;28;20379;-55
2022/08/15 15:28:29;;;;;;;11.48;10.68;;;30.40;1.00;;;;;;6266667;28;20241;-55
2022/08/15 15:31:48;;;;;;;10.93;9.88;;;30.50;1.00;;;;;;6283273;28;20241;-55
2022/08/15 15:34:58;;;;;;;15.82;10.45;;;30.70;1.00;;;;;;6285161;28;20616;-56
2022/08/15 15:38:01;;;;;;;28.73;11.50;;;30.90;1.00;;;;;;6282954;28;20229;-55
2022/08/15 15:41:25;;;;;;;14.60;8.95;;;31.00;1.00;;;;;;6278052;28;20625;-55
2022/08/15 15:44:28;;;;;;;10.30;9.60;;;31.10;1.00;;;;;;6284230;28;20359;-54
2022/08/15 15:47:32;;;;;;;14.30;10.00;;;31.10;1.00;;;;;;6281779;28;20526;-55
2022/08/15 15:50:55;;;;;;;10.25;9.65;;;31.10;1.00;;;;;;6284197;28;20246;-56
2022/08/15 15:54:00;;;;;;;10.57;9.52;;;30.90;1.00;;;;;;6283396;28;20233;-56
2022/08/15 15:57:05;;;;;;;10.68;9.88;;;30.80;1.00;;;;;;6282184;28;20229;-55
2022/08/15 16:00:12;;;;;;;14.50;10.43;;;30.60;1.00;;;;;;6282750;28;20280;-54
2022/08/15 16:03:31;;;;;;;11.43;10.60;;;30.50;1.00;;;;;;6283883;28;20225;-54
2022/08/15 16:06:38;;;;;;;12.20;10.38;;;30.30;1.00;;;;;;6254722;28;20245;-53
2022/08/15 16:10:05;;;;;;;11.23;10.20;;;30.20;1.00;;;;;;6279774;28;20259;-55
2022/08/15 16:13:18;;;;;;;11.82;10.68;;;30.10;1.00;;;;;;6283809;28;20235;-55
2022/08/15 16:16:36;;;;;;;11.73;10.75;;;30.00;1.00;;;;;;6281043;28;20378;-54
2022/08/15 16:19:45;;;;;;;10.40;9.75;;;29.90;1.00;;;;;;6282782;28;20241;-54
2022/08/15 16:22:52;;;;;;;21.75;10.00;;;29.80;1.00;;;;;;6279532;28;20240;-55
2022/08/15 16:26:00;;;;;;;19.73;8.23;;;29.70;1.00;;;;;;6279679;28;20229;-55
2022/08/15 16:29:10;;;;;;;19.30;7.87;;;29.10;1.00;;;;;;6284416;28;20725;-55
2022/08/15 16:32:24;;;;;;;19.13;7.83;;;28.40;1.00;;;;;;6284407;28;20244;-57
2022/08/15 16:35:40;;;;;;;13.10;7.90;;;27.70;1.00;;;;;;6279227;28;20260;-56
2022/08/15 16:38:51;;;;;;;16.90;7.77;;;26.80;1.00;;;;;;6277549;28;20232;-54
2022/08/15 16:42:15;;;;;;;18.57;8.37;;;25.80;1.00;;;;;;6279732;28;20230;-55
2022/08/15 16:45:47;;;;;;;10.77;7.60;;;25.40;1.00;;;;;;6275333;28;20234;-54